sensor_id;sensor_type;location;lat;lon;timestamp;P1;durP1;ratioP1;P2;durP2;ratioP2
69463;SDS011;56665;41.106;16.688;2023-04-21T00:00:09;7.82;;;4.70;;
69463;SDS011;56665;41.106;16.688;2023-04-21T00:03:15;7.27;;;4.03;;
69463;SDS011;56665;41.106;16.688;2023-04-21T00:06:18;7.60;;;4.40;;
69463;SDS011;56665;41.106;16.688;2023-04-21T00:09:25;7.22;;;4.40;;
69463;SDS011;56665;41.106;16.688;2023-04-21T00:12:30;9.30;;;4.40;;
69463;SDS011;56665;41.106;16.688;2023-04-21T00:15:34;7.53;;;4.95;;
69463;SDS011;56665;41.106;16.688;2023-04-21T00:18:38;10.57;;;4.97;;
69463;SDS011;56665;41.106;16.688;2023-04-21T00:21:42;7.78;;;4.72;;
69463;SDS011;56665;41.106;16.688;2023-04-21T00:24:45;8.82;;;4.38;;
69463;SDS011;56665;41.106;16.688;2023-04-21T00:27:50;8.00;;;4.70;;
69463;SDS011;56665;41.106;16.688;2023-04-21T00:30:54;8.68;;;4.88;;
69463;SDS011;56665;41.106;16.688;2023-04-21T00:33:58;8.87;;;5.40;;
69463;SDS011;56665;41.106;16.688;2023-04-21T00:37:02;12.30;;;5.18;;
69463;SDS011;56665;41.106;16.688;2023-04-21T00:40:06;11.07;;;5.70;;
69463;SDS011;56665;41.106;16.688;2023-04-21T00:43:11;11.50;;;6.18;;
69463;SDS011;56665;41.106;16.688;2023-04-21T00:46:15;13.60;;;6.40;;
69463;SDS011;56665;41.106;16.688;2023-04-21T00:49:18;10.93;;;6.37;;
69463;SDS011;56665;41.106;16.688;2023-04-21T00:52:22;16.75;;;8.13;;
69463;SDS011;56665;41.106;16.688;2023-04-21T00:55:26;24.73;;;10.52;;
69463;SDS011;56665;41.106;16.688;2023-04-21T00:58:31;43.58;;;15.88;;
69463;SDS011;56665;41.106;16.688;2023-04-21T01:01:36;38.67;;;14.45;;
69463;SDS011;56665;41.106;16.688;2023-04-21T01:04:42;27.40;;;11.27;;
69463;SDS011;56665;41.106;16.688;2023-04-21T01:07:47;22.75;;;10.57;;
69463;SDS011;56665;41.106;16.688;2023-04-21T01:10:51;26.00;;;10.80;;
69463;SDS011;56665;41.106;16.688;2023-04-21T01:13:55;21.38;;;9.85;;
69463;SDS011;56665;41.106;16.688;2023-04-21T01:16:59;19.95;;;9.10;;
69463;SDS011;56665;41.106;16.688;2023-04-21T01:20:04;18.55;;;8.60;;
69463;SDS011;56665;41.106;16.688;2023-04-21T01:23:12;15.60;;;7.53;;
69463;SDS011;56665;41.106;16.688;2023-04-21T01:26:17;14.75;;;7.45;;
69463;SDS011;56665;41.106;16.688;2023-04-21T01:29:24;14.68;;;7.53;;
69463;SDS011;56665;41.106;16.688;2023-04-21T01:32:28;15.25;;;7.10;;
69463;SDS011;56665;41.106;16.688;2023-04-21T01:35:33;17.03;;;8.50;;
69463;SDS011;56665;41.106;16.688;2023-04-21T01:38:38;19.93;;;9.07;;
69463;SDS011;56665;41.106;16.688;2023-04-21T01:41:43;23.42;;;9.40;;
69463;SDS011;56665;41.106;16.688;2023-04-21T01:44:47;18.77;;;8.55;;
69463;SDS011;56665;41.106;16.688;2023-04-21T01:47:53;14.23;;;6.95;;
69463;SDS011;56665;41.106;16.688;2023-04-21T01:50:56;16.67;;;6.55;;
69463;SDS011;56665;41.106;16.688;2023-04-21T01:54:02;13.63;;;5.87;;
69463;SDS011;56665;41.106;16.688;2023-04-21T01:57:06;10.48;;;5.60;;
69463;SDS011;56665;41.106;16.688;2023-04-21T02:00:11;9.68;;;5.30;;
69463;SDS011;56665;41.106;16.688;2023-04-21T02:03:21;10.75;;;5.13;;
69463;SDS011;56665;41.106;16.688;2023-04-21T02:06:25;8.93;;;5.43;;
69463;SDS011;56665;41.106;16.688;2023-04-21T02:09:28;10.13;;;5.40;;
69463;SDS011;56665;41.106;16.688;2023-04-21T02:12:32;11.13;;;5.88;;
69463;SDS011;56665;41.106;16.688;2023-04-21T02:15:36;11.10;;;5.60;;
69463;SDS011;56665;41.106;16.688;2023-04-21T02:18:39;13.88;;;6.15;;
69463;SDS011;56665;41.106;16.688;2023-04-21T02:21:44;13.90;;;6.03;;
69463;SDS011;56665;41.106;16.688;2023-04-21T02:24:49;11.15;;;6.10;;
69463;SDS011;56665;41.106;16.688;2023-04-21T02:27:55;14.68;;;6.47;;
69463;SDS011;56665;41.106;16.688;2023-04-21T02:30:59;9.70;;;5.78;;
69463;SDS011;56665;41.106;16.688;2023-04-21T02:34:03;10.13;;;5.82;;
69463;SDS011;56665;41.106;16.688;2023-04-21T02:37:07;12.13;;;6.27;;
69463;SDS011;56665;41.106;16.688;2023-04-21T02:40:12;11.25;;;6.50;;
69463;SDS011;56665;41.106;16.688;2023-04-21T02:43:16;11.13;;;6.95;;
69463;SDS011;56665;41.106;16.688;2023-04-21T02:46:20;12.68;;;7.60;;
69463;SDS011;56665;41.106;16.688;2023-04-21T02:49:23;12.10;;;6.10;;
69463;SDS011;56665;41.106;16.688;2023-04-21T02:52:27;9.87;;;5.90;;
69463;SDS011;56665;41.106;16.688;2023-04-21T02:55:31;10.20;;;5.85;;
69463;SDS011;56665;41.106;16.688;2023-04-21T02:58:35;9.95;;;6.03;;
69463;SDS011;56665;41.106;16.688;2023-04-21T03:01:40;11.13;;;5.78;;
69463;SDS011;56665;41.106;16.688;2023-04-21T03:04:45;12.98;;;6.53;;
69463;SDS011;56665;41.106;16.688;2023-04-21T03:07:49;11.77;;;5.97;;
69463;SDS011;56665;41.106;16.688;2023-04-21T03:10:53;11.18;;;6.00;;
69463;SDS011;56665;41.106;16.688;2023-04-21T03:13:59;11.40;;;6.90;;
69463;SDS011;56665;41.106;16.688;2023-04-21T03:17:02;11.30;;;6.32;;
69463;SDS011;56665;41.106;16.688;2023-04-21T03:20:09;11.90;;;6.88;;
69463;SDS011;56665;41.106;16.688;2023-04-21T03:23:14;11.43;;;7.23;;
69463;SDS011;56665;41.106;16.688;2023-04-21T03:26:19;13.75;;;6.75;;
69463;SDS011;56665;41.106;16.688;2023-04-21T03:29:23;15.40;;;7.00;;
69463;SDS011;56665;41.106;16.688;2023-04-21T03:32:27;18.15;;;8.05;;
69463;SDS011;56665;41.106;16.688;2023-04-21T03:35:31;14.02;;;7.80;;
69463;SDS011;56665;41.106;16.688;2023-04-21T03:38:36;14.73;;;7.37;;
69463;SDS011;56665;41.106;16.688;2023-04-21T03:41:40;17.27;;;8.23;;
69463;SDS011;56665;41.106;16.688;2023-04-21T03:44:46;16.65;;;8.77;;
69463;SDS011;56665;41.106;16.688;2023-04-21T03:47:53;14.30;;;8.57;;
69463;SDS011;56665;41.106;16.688;2023-04-21T03:50:57;13.20;;;8.15;;
69463;SDS011;56665;41.106;16.688;2023-04-21T03:54:02;17.37;;;8.33;;
69463;SDS011;56665;41.106;16.688;2023-04-21T03:57:06;17.70;;;10.40;;
69463;SDS011;56665;41.106;16.688;2023-04-21T04:00:09;17.88;;;10.73;;
69463;SDS011;56665;41.106;16.688;2023-04-21T04:03:17;13.95;;;9.10;;
69463;SDS011;56665;41.106;16.688;2023-04-21T04:06:21;14.68;;;7.32;;
69463;SDS011;56665;41.106;16.688;2023-04-21T04:09:25;11.87;;;7.33;;
69463;SDS011;56665;41.106;16.688;2023-04-21T04:12:29;10.52;;;6.97;;
69463;SDS011;56665;41.106;16.688;2023-04-21T04:15:33;10.63;;;6.68;;
69463;SDS011;56665;41.106;16.688;2023-04-21T04:18:38;12.05;;;7.22;;
69463;SDS011;56665;41.106;16.688;2023-04-21T04:21:41;13.82;;;7.68;;
69463;SDS011;56665;41.106;16.688;2023-04-21T04:24:45;15.63;;;8.80;;
69463;SDS011;56665;41.106;16.688;2023-04-21T04:27:49;20.30;;;11.93;;
69463;SDS011;56665;41.106;16.688;2023-04-21T04:30:55;25.92;;;14.88;;
69463;SDS011;56665;41.106;16.688;2023-04-21T04:33:59;30.52;;;16.55;;
69463;SDS011;56665;41.106;16.688;2023-04-21T04:37:04;31.52;;;17.02;;
69463;SDS011;56665;41.106;16.688;2023-04-21T04:40:09;30.97;;;16.83;;
69463;SDS011;56665;41.106;16.688;2023-04-21T04:43:14;30.00;;;16.27;;
69463;SDS011;56665;41.106;16.688;2023-04-21T04:46:19;32.13;;;17.33;;
69463;SDS011;56665;41.106;16.688;2023-04-21T04:49:22;28.33;;;15.05;;
69463;SDS011;56665;41.106;16.688;2023-04-21T04:52:26;23.02;;;13.48;;
69463;SDS011;56665;41.106;16.688;2023-04-21T04:55:30;23.73;;;13.70;;
69463;SDS011;56665;41.106;16.688;2023-04-21T04:58:35;27.40;;;14.35;;
69463;SDS011;56665;41.106;16.688;2023-04-21T05:01:38;30.20;;;17.65;;
69463;SDS011;56665;41.106;16.688;2023-04-21T05:04:45;49.45;;;28.13;;
69463;SDS011;56665;41.106;16.688;2023-04-21T05:07:49;57.55;;;36.72;;
69463;SDS011;56665;41.106;16.688;2023-04-21T05:10:53;66.60;;;41.67;;
69463;SDS011;56665;41.106;16.688;2023-04-21T05:13:57;77.90;;;45.70;;
69463;SDS011;56665;41.106;16.688;2023-04-21T05:17:02;89.20;;;49.42;;
69463;SDS011;56665;41.106;16.688;2023-04-21T05:20:06;71.20;;;40.22;;
69463;SDS011;56665;41.106;16.688;2023-04-21T05:23:10;44.45;;;27.20;;
69463;SDS011;56665;41.106;16.688;2023-04-21T05:26:17;30.93;;;19.07;;
69463;SDS011;56665;41.106;16.688;2023-04-21T05:29:21;27.85;;;17.88;;
69463;SDS011;56665;41.106;16.688;2023-04-21T05:32:25;24.90;;;15.27;;
69463;SDS011;56665;41.106;16.688;2023-04-21T05:35:29;20.35;;;12.85;;
69463;SDS011;56665;41.106;16.688;2023-04-21T05:38:34;19.95;;;11.60;;
69463;SDS011;56665;41.106;16.688;2023-04-21T05:41:38;16.13;;;10.23;;
69463;SDS011;56665;41.106;16.688;2023-04-21T05:44:42;15.90;;;9.80;;
69463;SDS011;56665;41.106;16.688;2023-04-21T05:47:46;12.48;;;8.02;;
69463;SDS011;56665;41.106;16.688;2023-04-21T05:50:50;12.65;;;8.20;;
69463;SDS011;56665;41.106;16.688;2023-04-21T05:53:54;10.73;;;7.57;;
69463;SDS011;56665;41.106;16.688;2023-04-21T05:56:57;13.43;;;8.33;;
69463;SDS011;56665;41.106;16.688;2023-04-21T06:00:01;14.13;;;8.15;;
69463;SDS011;56665;41.106;16.688;2023-04-21T06:03:09;12.93;;;8.15;;
69463;SDS011;56665;41.106;16.688;2023-04-21T06:06:13;12.95;;;7.78;;
69463;SDS011;56665;41.106;16.688;2023-04-21T06:09:17;9.50;;;6.82;;
69463;SDS011;56665;41.106;16.688;2023-04-21T06:12:20;10.17;;;7.03;;
69463;SDS011;56665;41.106;16.688;2023-04-21T06:15:24;11.55;;;7.57;;
69463;SDS011;56665;41.106;16.688;2023-04-21T06:18:28;10.52;;;6.80;;
69463;SDS011;56665;41.106;16.688;2023-04-21T06:21:31;12.95;;;7.15;;
69463;SDS011;56665;41.106;16.688;2023-04-21T06:24:35;12.48;;;7.22;;
69463;SDS011;56665;41.106;16.688;2023-04-21T06:27:39;12.83;;;7.80;;
69463;SDS011;56665;41.106;16.688;2023-04-21T06:30:44;13.02;;;8.07;;
69463;SDS011;56665;41.106;16.688;2023-04-21T06:33:48;12.10;;;8.27;;
69463;SDS011;56665;41.106;16.688;2023-04-21T06:36:51;16.02;;;10.32;;
69463;SDS011;56665;41.106;16.688;2023-04-21T06:39:57;20.13;;;12.68;;
69463;SDS011;56665;41.106;16.688;2023-04-21T06:43:01;20.73;;;12.37;;
69463;SDS011;56665;41.106;16.688;2023-04-21T06:46:05;30.65;;;19.35;;
69463;SDS011;56665;41.106;16.688;2023-04-21T06:49:09;36.80;;;22.85;;
69463;SDS011;56665;41.106;16.688;2023-04-21T06:52:14;52.45;;;32.97;;
69463;SDS011;56665;41.106;16.688;2023-04-21T06:55:18;47.05;;;30.00;;
69463;SDS011;56665;41.106;16.688;2023-04-21T06:58:22;34.70;;;22.30;;
69463;SDS011;56665;41.106;16.688;2023-04-21T07:01:25;26.08;;;16.30;;
69463;SDS011;56665;41.106;16.688;2023-04-21T07:04:30;19.23;;;13.07;;
69463;SDS011;56665;41.106;16.688;2023-04-21T07:07:34;22.27;;;12.68;;
69463;SDS011;56665;41.106;16.688;2023-04-21T07:10:39;21.38;;;13.20;;
69463;SDS011;56665;41.106;16.688;2023-04-21T07:13:44;16.87;;;11.23;;
69463;SDS011;56665;41.106;16.688;2023-04-21T07:16:47;15.27;;;10.65;;
69463;SDS011;56665;41.106;16.688;2023-04-21T07:19:51;20.85;;;13.15;;
69463;SDS011;56665;41.106;16.688;2023-04-21T07:22:55;19.23;;;13.38;;
69463;SDS011;56665;41.106;16.688;2023-04-21T07:26:00;18.63;;;12.02;;
69463;SDS011;56665;41.106;16.688;2023-04-21T07:29:04;20.00;;;11.87;;
69463;SDS011;56665;41.106;16.688;2023-04-21T07:32:08;15.23;;;9.80;;
69463;SDS011;56665;41.106;16.688;2023-04-21T07:35:12;18.08;;;11.45;;
69463;SDS011;56665;41.106;16.688;2023-04-21T07:38:17;17.10;;;11.20;;
69463;SDS011;56665;41.106;16.688;2023-04-21T07:41:21;16.30;;;10.48;;
69463;SDS011;56665;41.106;16.688;2023-04-21T07:44:25;16.23;;;9.93;;
69463;SDS011;56665;41.106;16.688;2023-04-21T07:47:31;17.02;;;11.43;;
69463;SDS011;56665;41.106;16.688;2023-04-21T07:50:36;15.25;;;10.88;;
69463;SDS011;56665;41.106;16.688;2023-04-21T07:53:40;13.95;;;10.23;;
69463;SDS011;56665;41.106;16.688;2023-04-21T07:56:43;15.55;;;10.50;;
69463;SDS011;56665;41.106;16.688;2023-04-21T07:59:48;15.17;;;10.33;;
69463;SDS011;56665;41.106;16.688;2023-04-21T08:02:52;12.13;;;8.90;;
69463;SDS011;56665;41.106;16.688;2023-04-21T08:05:57;14.18;;;9.40;;
69463;SDS011;56665;41.106;16.688;2023-04-21T08:09:01;14.15;;;9.10;;
69463;SDS011;56665;41.106;16.688;2023-04-21T08:12:07;12.25;;;8.20;;
69463;SDS011;56665;41.106;16.688;2023-04-21T08:15:11;11.48;;;8.85;;
69463;SDS011;56665;41.106;16.688;2023-04-21T08:18:14;9.00;;;7.28;;
69463;SDS011;56665;41.106;16.688;2023-04-21T08:21:19;13.05;;;8.15;;
69463;SDS011;56665;41.106;16.688;2023-04-21T08:24:23;12.25;;;8.02;;
69463;SDS011;56665;41.106;16.688;2023-04-21T08:27:27;9.88;;;7.70;;
69463;SDS011;56665;41.106;16.688;2023-04-21T08:30:31;9.07;;;7.75;;
69463;SDS011;56665;41.106;16.688;2023-04-21T08:33:35;7.20;;;5.55;;
69463;SDS011;56665;41.106;16.688;2023-04-21T08:36:38;7.78;;;6.82;;
69463;SDS011;56665;41.106;16.688;2023-04-21T08:39:44;10.07;;;8.15;;
69463;SDS011;56665;41.106;16.688;2023-04-21T08:42:49;13.50;;;9.13;;
69463;SDS011;56665;41.106;16.688;2023-04-21T08:45:54;12.23;;;8.10;;
69463;SDS011;56665;41.106;16.688;2023-04-21T08:48:58;10.00;;;7.35;;
69463;SDS011;56665;41.106;16.688;2023-04-21T08:52:03;8.52;;;7.03;;
69463;SDS011;56665;41.106;16.688;2023-04-21T08:55:08;8.75;;;7.47;;
69463;SDS011;56665;41.106;16.688;2023-04-21T08:58:13;7.93;;;6.35;;
69463;SDS011;56665;41.106;16.688;2023-04-21T09:01:17;7.35;;;5.95;;
69463;SDS011;56665;41.106;16.688;2023-04-21T09:04:21;7.93;;;5.63;;
69463;SDS011;56665;41.106;16.688;2023-04-21T09:10:49;6.85;;;5.43;;
69463;SDS011;56665;41.106;16.688;2023-04-21T09:13:55;5.50;;;4.15;;
69463;SDS011;56665;41.106;16.688;2023-04-21T09:17:00;6.80;;;5.00;;
69463;SDS011;56665;41.106;16.688;2023-04-21T09:20:23;7.18;;;5.20;;
69463;SDS011;56665;41.106;16.688;2023-04-21T09:23:27;10.60;;;8.02;;
69463;SDS011;56665;41.106;16.688;2023-04-21T09:26:31;10.57;;;6.95;;
69463;SDS011;56665;41.106;16.688;2023-04-21T09:29:35;8.52;;;5.68;;
69463;SDS011;56665;41.106;16.688;2023-04-21T09:32:42;7.93;;;6.30;;
69463;SDS011;56665;41.106;16.688;2023-04-21T09:35:46;10.10;;;7.50;;
69463;SDS011;56665;41.106;16.688;2023-04-21T09:38:57;7.55;;;6.05;;
69463;SDS011;56665;41.106;16.688;2023-04-21T09:42:05;8.60;;;6.30;;
69463;SDS011;56665;41.106;16.688;2023-04-21T09:45:12;7.65;;;6.40;;
69463;SDS011;56665;41.106;16.688;2023-04-21T09:48:16;10.77;;;7.22;;
69463;SDS011;56665;41.106;16.688;2023-04-21T09:51:21;9.80;;;7.18;;
69463;SDS011;56665;41.106;16.688;2023-04-21T09:54:32;9.10;;;6.93;;
69463;SDS011;56665;41.106;16.688;2023-04-21T09:57:38;10.93;;;6.72;;
69463;SDS011;56665;41.106;16.688;2023-04-21T10:00:43;9.60;;;6.55;;
69463;SDS011;56665;41.106;16.688;2023-04-21T10:03:47;10.73;;;7.43;;
69463;SDS011;56665;41.106;16.688;2023-04-21T10:06:51;10.55;;;7.07;;
69463;SDS011;56665;41.106;16.688;2023-04-21T10:09:56;9.57;;;6.95;;
69463;SDS011;56665;41.106;16.688;2023-04-21T10:13:01;9.32;;;6.70;;
69463;SDS011;56665;41.106;16.688;2023-04-21T10:16:07;9.80;;;6.85;;
69463;SDS011;56665;41.106;16.688;2023-04-21T10:19:24;11.23;;;7.53;;
69463;SDS011;56665;41.106;16.688;2023-04-21T10:22:30;9.60;;;6.78;;
69463;SDS011;56665;41.106;16.688;2023-04-21T10:25:34;7.90;;;6.43;;
69463;SDS011;56665;41.106;16.688;2023-04-21T10:28:55;8.82;;;6.50;;
69463;SDS011;56665;41.106;16.688;2023-04-21T10:32:01;8.95;;;6.35;;
69463;SDS011;56665;41.106;16.688;2023-04-21T10:35:20;8.97;;;6.10;;
69463;SDS011;56665;41.106;16.688;2023-04-21T10:41:42;8.38;;;6.57;;
69463;SDS011;56665;41.106;16.688;2023-04-21T10:47:59;6.95;;;5.13;;
69463;SDS011;56665;41.106;16.688;2023-04-21T10:51:04;7.70;;;5.93;;
69463;SDS011;56665;41.106;16.688;2023-04-21T10:54:09;7.32;;;4.95;;
69463;SDS011;56665;41.106;16.688;2023-04-21T10:57:17;9.27;;;4.90;;
69463;SDS011;56665;41.106;16.688;2023-04-21T11:00:23;6.60;;;4.45;;
69463;SDS011;56665;41.106;16.688;2023-04-21T11:03:32;6.50;;;5.07;;
69463;SDS011;56665;41.106;16.688;2023-04-21T11:06:38;8.48;;;5.22;;
69463;SDS011;56665;41.106;16.688;2023-04-21T11:09:43;7.90;;;6.32;;
69463;SDS011;56665;41.106;16.688;2023-04-21T11:12:48;6.25;;;4.90;;
69463;SDS011;56665;41.106;16.688;2023-04-21T11:15:55;6.18;;;4.65;;
69463;SDS011;56665;41.106;16.688;2023-04-21T11:19:00;9.68;;;5.75;;
69463;SDS011;56665;41.106;16.688;2023-04-21T11:22:04;6.75;;;4.80;;
69463;SDS011;56665;41.106;16.688;2023-04-21T11:25:15;9.52;;;4.55;;
69463;SDS011;56665;41.106;16.688;2023-04-21T11:28:21;6.47;;;4.07;;
69463;SDS011;56665;41.106;16.688;2023-04-21T11:31:27;6.85;;;4.45;;
69463;SDS011;56665;41.106;16.688;2023-04-21T11:34:37;7.10;;;4.10;;
69463;SDS011;56665;41.106;16.688;2023-04-21T11:37:42;5.73;;;4.03;;
69463;SDS011;56665;41.106;16.688;2023-04-21T11:40:47;5.32;;;3.70;;
69463;SDS011;56665;41.106;16.688;2023-04-21T11:43:51;8.43;;;4.28;;
69463;SDS011;56665;41.106;16.688;2023-04-21T11:46:55;5.57;;;3.97;;
69463;SDS011;56665;41.106;16.688;2023-04-21T11:50:00;5.00;;;3.92;;
69463;SDS011;56665;41.106;16.688;2023-04-21T11:53:05;7.27;;;4.23;;
69463;SDS011;56665;41.106;16.688;2023-04-21T11:56:08;6.28;;;4.38;;
69463;SDS011;56665;41.106;16.688;2023-04-21T11:59:18;6.38;;;4.28;;
69463;SDS011;56665;41.106;16.688;2023-04-21T12:02:29;5.63;;;4.00;;
69463;SDS011;56665;41.106;16.688;2023-04-21T12:05:34;6.55;;;4.20;;
69463;SDS011;56665;41.106;16.688;2023-04-21T12:08:40;6.13;;;4.50;;
69463;SDS011;56665;41.106;16.688;2023-04-21T12:11:46;6.78;;;4.88;;
69463;SDS011;56665;41.106;16.688;2023-04-21T12:14:54;7.25;;;4.80;;
69463;SDS011;56665;41.106;16.688;2023-04-21T12:17:58;6.47;;;4.07;;
69463;SDS011;56665;41.106;16.688;2023-04-21T12:21:02;5.20;;;4.05;;
69463;SDS011;56665;41.106;16.688;2023-04-21T12:24:06;7.40;;;4.67;;
69463;SDS011;56665;41.106;16.688;2023-04-21T12:27:10;7.25;;;4.30;;
69463;SDS011;56665;41.106;16.688;2023-04-21T12:30:14;7.35;;;4.63;;
69463;SDS011;56665;41.106;16.688;2023-04-21T12:33:19;7.57;;;4.60;;
69463;SDS011;56665;41.106;16.688;2023-04-21T12:36:23;7.43;;;5.05;;
69463;SDS011;56665;41.106;16.688;2023-04-21T12:39:26;7.30;;;5.33;;
69463;SDS011;56665;41.106;16.688;2023-04-21T12:42:31;6.70;;;5.07;;
69463;SDS011;56665;41.106;16.688;2023-04-21T12:45:35;8.52;;;5.40;;
69463;SDS011;56665;41.106;16.688;2023-04-21T12:48:39;6.88;;;4.60;;
69463;SDS011;56665;41.106;16.688;2023-04-21T12:51:43;8.18;;;5.18;;
69463;SDS011;56665;41.106;16.688;2023-04-21T12:54:48;7.40;;;4.77;;
69463;SDS011;56665;41.106;16.688;2023-04-21T12:57:52;6.55;;;4.80;;
69463;SDS011;56665;41.106;16.688;2023-04-21T13:00:56;8.07;;;4.57;;
69463;SDS011;56665;41.106;16.688;2023-04-21T13:04:01;6.43;;;4.40;;
69463;SDS011;56665;41.106;16.688;2023-04-21T13:07:04;4.80;;;3.85;;
69463;SDS011;56665;41.106;16.688;2023-04-21T13:10:08;5.40;;;4.20;;
69463;SDS011;56665;41.106;16.688;2023-04-21T13:13:12;11.35;;;5.00;;
69463;SDS011;56665;41.106;16.688;2023-04-21T13:16:16;5.75;;;4.57;;
69463;SDS011;56665;41.106;16.688;2023-04-21T13:19:20;6.82;;;4.38;;
69463;SDS011;56665;41.106;16.688;2023-04-21T13:22:24;6.80;;;4.75;;
69463;SDS011;56665;41.106;16.688;2023-04-21T13:25:28;7.07;;;4.80;;
69463;SDS011;56665;41.106;16.688;2023-04-21T13:28:32;6.72;;;4.90;;
69463;SDS011;56665;41.106;16.688;2023-04-21T13:31:36;6.72;;;4.30;;
69463;SDS011;56665;41.106;16.688;2023-04-21T13:34:41;5.30;;;3.72;;
69463;SDS011;56665;41.106;16.688;2023-04-21T13:37:44;7.60;;;5.50;;
69463;SDS011;56665;41.106;16.688;2023-04-21T13:40:48;5.80;;;4.13;;
69463;SDS011;56665;41.106;16.688;2023-04-21T13:43:53;6.53;;;4.63;;
69463;SDS011;56665;41.106;16.688;2023-04-21T13:46:58;7.82;;;4.70;;
69463;SDS011;56665;41.106;16.688;2023-04-21T13:50:02;6.30;;;4.57;;
69463;SDS011;56665;41.106;16.688;2023-04-21T13:53:07;6.70;;;5.00;;
69463;SDS011;56665;41.106;16.688;2023-04-21T13:56:11;6.47;;;4.30;;
69463;SDS011;56665;41.106;16.688;2023-04-21T13:59:16;7.32;;;4.20;;
69463;SDS011;56665;41.106;16.688;2023-04-21T14:02:23;6.05;;;3.88;;
69463;SDS011;56665;41.106;16.688;2023-04-21T14:05:28;7.90;;;4.20;;
69463;SDS011;56665;41.106;16.688;2023-04-21T14:08:33;6.05;;;3.60;;
69463;SDS011;56665;41.106;16.688;2023-04-21T14:11:38;6.07;;;4.20;;
69463;SDS011;56665;41.106;16.688;2023-04-21T14:14:41;6.35;;;3.92;;
69463;SDS011;56665;41.106;16.688;2023-04-21T14:17:45;4.82;;;3.58;;
69463;SDS011;56665;41.106;16.688;2023-04-21T14:20:49;6.50;;;3.70;;
69463;SDS011;56665;41.106;16.688;2023-04-21T14:23:52;5.32;;;3.70;;
69463;SDS011;56665;41.106;16.688;2023-04-21T14:26:57;5.23;;;3.97;;
69463;SDS011;56665;41.106;16.688;2023-04-21T14:30:01;7.25;;;3.90;;
69463;SDS011;56665;41.106;16.688;2023-04-21T14:33:05;7.45;;;4.60;;
69463;SDS011;56665;41.106;16.688;2023-04-21T14:36:09;6.18;;;4.32;;
69463;SDS011;56665;41.106;16.688;2023-04-21T14:39:13;5.82;;;3.70;;
69463;SDS011;56665;41.106;16.688;2023-04-21T14:42:19;7.07;;;5.20;;
69463;SDS011;56665;41.106;16.688;2023-04-21T14:45:24;6.32;;;4.35;;
69463;SDS011;56665;41.106;16.688;2023-04-21T14:48:29;6.38;;;4.40;;
69463;SDS011;56665;41.106;16.688;2023-04-21T14:51:33;7.05;;;4.47;;
69463;SDS011;56665;41.106;16.688;2023-04-21T14:54:37;8.20;;;4.88;;
69463;SDS011;56665;41.106;16.688;2023-04-21T14:57:41;7.67;;;5.23;;
69463;SDS011;56665;41.106;16.688;2023-04-21T15:00:44;6.38;;;4.70;;
69463;SDS011;56665;41.106;16.688;2023-04-21T15:03:49;6.18;;;4.80;;
69463;SDS011;56665;41.106;16.688;2023-04-21T15:06:54;8.07;;;5.07;;
69463;SDS011;56665;41.106;16.688;2023-04-21T15:09:59;6.45;;;4.85;;
69463;SDS011;56665;41.106;16.688;2023-04-21T15:13:04;7.27;;;5.17;;
69463;SDS011;56665;41.106;16.688;2023-04-21T15:16:07;7.50;;;5.07;;
69463;SDS011;56665;41.106;16.688;2023-04-21T15:19:11;6.00;;;4.30;;
69463;SDS011;56665;41.106;16.688;2023-04-21T15:22:17;8.38;;;4.78;;
69463;SDS011;56665;41.106;16.688;2023-04-21T15:25:24;6.72;;;4.00;;
69463;SDS011;56665;41.106;16.688;2023-04-21T15:28:28;6.57;;;4.10;;
69463;SDS011;56665;41.106;16.688;2023-04-21T15:31:31;6.40;;;4.13;;
69463;SDS011;56665;41.106;16.688;2023-04-21T15:34:35;7.07;;;4.88;;
69463;SDS011;56665;41.106;16.688;2023-04-21T15:37:39;6.25;;;4.40;;
69463;SDS011;56665;41.106;16.688;2023-04-21T15:40:42;8.27;;;4.40;;
69463;SDS011;56665;41.106;16.688;2023-04-21T15:43:46;9.23;;;4.90;;
69463;SDS011;56665;41.106;16.688;2023-04-21T15:46:50;8.77;;;4.80;;
69463;SDS011;56665;41.106;16.688;2023-04-21T15:49:55;6.03;;;4.38;;
69463;SDS011;56665;41.106;16.688;2023-04-21T15:53:03;8.10;;;4.80;;
69463;SDS011;56665;41.106;16.688;2023-04-21T15:56:10;7.43;;;5.05;;
69463;SDS011;56665;41.106;16.688;2023-04-21T15:59:14;6.90;;;4.80;;
69463;SDS011;56665;41.106;16.688;2023-04-21T16:02:18;7.25;;;5.15;;
69463;SDS011;56665;41.106;16.688;2023-04-21T16:05:22;8.93;;;4.72;;
69463;SDS011;56665;41.106;16.688;2023-04-21T16:08:26;8.20;;;4.00;;
69463;SDS011;56665;41.106;16.688;2023-04-21T16:11:30;7.57;;;4.80;;
69463;SDS011;56665;41.106;16.688;2023-04-21T16:14:34;6.67;;;4.10;;
69463;SDS011;56665;41.106;16.688;2023-04-21T16:17:41;6.95;;;4.50;;
69463;SDS011;56665;41.106;16.688;2023-04-21T16:20:45;6.35;;;3.97;;
69463;SDS011;56665;41.106;16.688;2023-04-21T16:23:50;7.82;;;4.82;;
69463;SDS011;56665;41.106;16.688;2023-04-21T16:26:53;7.90;;;4.80;;
69463;SDS011;56665;41.106;16.688;2023-04-21T16:29:59;6.90;;;4.80;;
69463;SDS011;56665;41.106;16.688;2023-04-21T16:33:03;6.93;;;4.85;;
69463;SDS011;56665;41.106;16.688;2023-04-21T16:36:07;6.90;;;5.05;;
69463;SDS011;56665;41.106;16.688;2023-04-21T16:39:11;7.22;;;4.90;;
69463;SDS011;56665;41.106;16.688;2023-04-21T16:42:15;12.05;;;5.40;;
69463;SDS011;56665;41.106;16.688;2023-04-21T16:45:19;7.17;;;4.63;;
69463;SDS011;56665;41.106;16.688;2023-04-21T16:48:22;6.75;;;4.88;;
69463;SDS011;56665;41.106;16.688;2023-04-21T16:51:26;6.00;;;4.15;;
69463;SDS011;56665;41.106;16.688;2023-04-21T16:54:31;6.43;;;4.55;;
69463;SDS011;56665;41.106;16.688;2023-04-21T16:57:34;8.52;;;4.88;;
69463;SDS011;56665;41.106;16.688;2023-04-21T17:00:39;6.70;;;4.40;;
69463;SDS011;56665;41.106;16.688;2023-04-21T17:03:45;7.85;;;4.78;;
69463;SDS011;56665;41.106;16.688;2023-04-21T17:06:50;7.70;;;4.75;;
69463;SDS011;56665;41.106;16.688;2023-04-21T17:09:53;8.07;;;5.55;;
69463;SDS011;56665;41.106;16.688;2023-04-21T17:12:58;8.90;;;5.50;;
69463;SDS011;56665;41.106;16.688;2023-04-21T17:16:02;7.53;;;5.40;;
69463;SDS011;56665;41.106;16.688;2023-04-21T17:19:06;8.38;;;5.82;;
69463;SDS011;56665;41.106;16.688;2023-04-21T17:22:09;7.47;;;5.30;;
69463;SDS011;56665;41.106;16.688;2023-04-21T17:25:13;11.63;;;5.60;;
69463;SDS011;56665;41.106;16.688;2023-04-21T17:28:17;10.20;;;6.70;;
69463;SDS011;56665;41.106;16.688;2023-04-21T17:31:20;9.30;;;6.00;;
69463;SDS011;56665;41.106;16.688;2023-04-21T17:34:24;9.05;;;6.10;;
69463;SDS011;56665;41.106;16.688;2023-04-21T17:37:29;10.55;;;5.97;;
69463;SDS011;56665;41.106;16.688;2023-04-21T17:40:33;10.02;;;6.78;;
69463;SDS011;56665;41.106;16.688;2023-04-21T17:43:38;10.43;;;6.95;;
69463;SDS011;56665;41.106;16.688;2023-04-21T17:46:42;10.50;;;6.10;;
69463;SDS011;56665;41.106;16.688;2023-04-21T17:49:46;10.05;;;6.47;;
69463;SDS011;56665;41.106;16.688;2023-04-21T17:52:50;9.20;;;6.43;;
69463;SDS011;56665;41.106;16.688;2023-04-21T17:55:53;9.00;;;6.30;;
69463;SDS011;56665;41.106;16.688;2023-04-21T17:58:59;9.45;;;6.57;;
69463;SDS011;56665;41.106;16.688;2023-04-21T18:02:03;9.53;;;6.77;;
69463;SDS011;56665;41.106;16.688;2023-04-21T18:05:07;10.90;;;7.78;;
69463;SDS011;56665;41.106;16.688;2023-04-21T18:08:11;10.13;;;7.03;;
69463;SDS011;56665;41.106;16.688;2023-04-21T18:11:17;11.82;;;8.40;;
69463;SDS011;56665;41.106;16.688;2023-04-21T18:14:21;14.18;;;9.20;;